map of ASI home
ASI - Airport
Location
City:  Ascension Island, Ascension, St. Helena
Near (Alt.):Georgetown
Name:RAF Ascension Island
Old (Alt.):Wideawake Field, Wide Awake Field
ICAO:FHAW
IATA:ASI

Details
Type:Airport (Aerodrome, Airfield)
Use:Military, International (customs port of entry)
Latitude:758'11"S (-7.969596)
Longitude:1423'37"W (-14.393663)
Datum:WGS 1984
Elevation:278 ft (85 m)
Variation:15.41W (WMM2015 magnetic declination)
0.10 annual change
Runways:1
Longest:10019 × 150 ft (3054 × 45.5 m), paved

Time
Time Zone:UTC+0
Local Time:

Weather
METAR:FHAW 231750Z 13014KT 9999 FEW019 BKN034 24/19 Q1013 BLU

Related Locations
Nearby:
Farthest:UJE: 12363 mi / 19897 km
Ujae Atoll (Ujae Island), MH

Find:

   beyond  
but within

Other Information
Maps:
NOTAMs:
Links:
Sources:

  
flag of St. Helena
flag of Ascension
flag of Royal Air Force
  

Airport Diagram

Airport diagram for ASI

Larger airport diagram (OBSOLETE) from NGA

Sectional Chart

Flight Planning
at skyvector.com

Satellite Image

Google Maps Satellite view

 

Copyright © 2004-2017 Karl L. Swartz. All rights reserved.
The Great Circle Mapper name and logo are trademarks of the Great Circle Mapper.
All other trademarks mentioned herein belong to their respective owners.
Please see credits for attibutions and further copyright information.

  Follow gcmap on Facebook Follow gcmap on Twitter Follow gcmap on Google+ GCmap on LinkedIn

hCard Microformat

Geo Microformat